sensor_id;sensor_type;location;lat;lon;timestamp;P1;durP1;ratioP1;P2;durP2;ratioP2
14526;SDS011;7350;51.208;4.238;2023-04-15T00:01:29;2.70;;;1.95;;
14526;SDS011;7350;51.208;4.238;2023-04-15T00:03:58;2.78;;;2.20;;
14526;SDS011;7350;51.208;4.238;2023-04-15T00:06:25;3.42;;;2.35;;
14526;SDS011;7350;51.208;4.238;2023-04-15T00:08:52;3.13;;;2.22;;
14526;SDS011;7350;51.208;4.238;2023-04-15T00:11:19;2.38;;;2.08;;
14526;SDS011;7350;51.208;4.238;2023-04-15T00:13:48;2.67;;;2.35;;
14526;SDS011;7350;51.208;4.238;2023-04-15T00:16:15;2.88;;;2.17;;
14526;SDS011;7350;51.208;4.238;2023-04-15T00:18:42;3.10;;;2.20;;
14526;SDS011;7350;51.208;4.238;2023-04-15T00:21:09;2.85;;;2.35;;
14526;SDS011;7350;51.208;4.238;2023-04-15T00:23:36;3.67;;;2.58;;
14526;SDS011;7350;51.208;4.238;2023-04-15T00:26:03;2.80;;;2.00;;
14526;SDS011;7350;51.208;4.238;2023-04-15T00:28:30;2.35;;;2.08;;
14526;SDS011;7350;51.208;4.238;2023-04-15T00:30:59;2.40;;;2.20;;
14526;SDS011;7350;51.208;4.238;2023-04-15T00:33:25;2.35;;;2.15;;
14526;SDS011;7350;51.208;4.238;2023-04-15T00:35:52;2.67;;;2.47;;
14526;SDS011;7350;51.208;4.238;2023-04-15T00:38:19;2.65;;;2.20;;
14526;SDS011;7350;51.208;4.238;2023-04-15T00:40:46;2.58;;;2.08;;
14526;SDS011;7350;51.208;4.238;2023-04-15T00:43:13;2.58;;;2.38;;
14526;SDS011;7350;51.208;4.238;2023-04-15T00:45:40;2.70;;;2.25;;
14526;SDS011;7350;51.208;4.238;2023-04-15T00:48:09;3.00;;;2.28;;
14526;SDS011;7350;51.208;4.238;2023-04-15T00:50:37;2.15;;;1.92;;
14526;SDS011;7350;51.208;4.238;2023-04-15T00:53:04;3.47;;;2.42;;
14526;SDS011;7350;51.208;4.238;2023-04-15T00:55:31;2.22;;;2.03;;
14526;SDS011;7350;51.208;4.238;2023-04-15T00:57:58;2.90;;;2.50;;
14526;SDS011;7350;51.208;4.238;2023-04-15T01:00:25;2.85;;;2.20;;
14526;SDS011;7350;51.208;4.238;2023-04-15T01:02:53;3.30;;;2.45;;
14526;SDS011;7350;51.208;4.238;2023-04-15T01:05:21;2.72;;;2.30;;
14526;SDS011;7350;51.208;4.238;2023-04-15T01:07:49;2.38;;;2.03;;
14526;SDS011;7350;51.208;4.238;2023-04-15T01:10:16;2.75;;;2.20;;
14526;SDS011;7350;51.208;4.238;2023-04-15T01:12:43;2.47;;;2.17;;
14526;SDS011;7350;51.208;4.238;2023-04-15T01:15:10;2.78;;;2.38;;
14526;SDS011;7350;51.208;4.238;2023-04-15T01:17:38;2.55;;;2.20;;
14526;SDS011;7350;51.208;4.238;2023-04-15T01:20:05;2.75;;;2.45;;
14526;SDS011;7350;51.208;4.238;2023-04-15T01:22:44;2.38;;;2.08;;
14526;SDS011;7350;51.208;4.238;2023-04-15T01:25:13;3.80;;;2.45;;
14526;SDS011;7350;51.208;4.238;2023-04-15T01:27:44;2.63;;;2.35;;
14526;SDS011;7350;51.208;4.238;2023-04-15T01:30:12;3.53;;;2.67;;
14526;SDS011;7350;51.208;4.238;2023-04-15T01:32:39;2.50;;;2.20;;
14526;SDS011;7350;51.208;4.238;2023-04-15T01:35:06;2.78;;;2.38;;
14526;SDS011;7350;51.208;4.238;2023-04-15T01:37:34;3.75;;;2.47;;
14526;SDS011;7350;51.208;4.238;2023-04-15T01:40:03;2.80;;;2.20;;
14526;SDS011;7350;51.208;4.238;2023-04-15T01:42:30;2.60;;;2.40;;
14526;SDS011;7350;51.208;4.238;2023-04-15T01:44:59;3.35;;;2.40;;
14526;SDS011;7350;51.208;4.238;2023-04-15T01:47:26;2.88;;;2.50;;
14526;SDS011;7350;51.208;4.238;2023-04-15T01:49:53;2.60;;;2.25;;
14526;SDS011;7350;51.208;4.238;2023-04-15T01:52:20;2.90;;;2.28;;
14526;SDS011;7350;51.208;4.238;2023-04-15T01:54:47;2.70;;;2.50;;
14526;SDS011;7350;51.208;4.238;2023-04-15T01:57:14;4.10;;;2.78;;
14526;SDS011;7350;51.208;4.238;2023-04-15T01:59:41;2.78;;;2.30;;
14526;SDS011;7350;51.208;4.238;2023-04-15T02:02:10;2.72;;;2.25;;
14526;SDS011;7350;51.208;4.238;2023-04-15T02:04:37;2.47;;;2.28;;
14526;SDS011;7350;51.208;4.238;2023-04-15T02:07:04;2.65;;;2.33;;
14526;SDS011;7350;51.208;4.238;2023-04-15T02:09:31;2.92;;;2.55;;
14526;SDS011;7350;51.208;4.238;2023-04-15T02:11:58;3.10;;;2.05;;
14526;SDS011;7350;51.208;4.238;2023-04-15T02:14:25;3.03;;;2.60;;
14526;SDS011;7350;51.208;4.238;2023-04-15T02:16:52;3.00;;;2.38;;
14526;SDS011;7350;51.208;4.238;2023-04-15T02:19:20;3.60;;;2.45;;
14526;SDS011;7350;51.208;4.238;2023-04-15T02:21:47;2.92;;;2.17;;
14526;SDS011;7350;51.208;4.238;2023-04-15T02:24:14;2.50;;;2.30;;
14526;SDS011;7350;51.208;4.238;2023-04-15T02:26:41;3.35;;;2.22;;
14526;SDS011;7350;51.208;4.238;2023-04-15T02:29:08;2.80;;;2.30;;
14526;SDS011;7350;51.208;4.238;2023-04-15T02:31:35;2.72;;;2.15;;
14526;SDS011;7350;51.208;4.238;2023-04-15T02:34:04;3.58;;;2.58;;
14526;SDS011;7350;51.208;4.238;2023-04-15T02:36:32;2.60;;;2.20;;
14526;SDS011;7350;51.208;4.238;2023-04-15T02:39:02;3.05;;;2.25;;
14526;SDS011;7350;51.208;4.238;2023-04-15T02:41:29;2.40;;;2.20;;
14526;SDS011;7350;51.208;4.238;2023-04-15T02:43:56;2.58;;;2.38;;
14526;SDS011;7350;51.208;4.238;2023-04-15T02:46:23;2.95;;;2.33;;
14526;SDS011;7350;51.208;4.238;2023-04-15T02:48:50;3.10;;;2.10;;
14526;SDS011;7350;51.208;4.238;2023-04-15T02:51:18;1.90;;;1.80;;
14526;SDS011;7350;51.208;4.238;2023-04-15T02:53:48;2.92;;;2.40;;
14526;SDS011;7350;51.208;4.238;2023-04-15T02:56:15;2.67;;;2.00;;
14526;SDS011;7350;51.208;4.238;2023-04-15T02:58:43;3.28;;;2.45;;
14526;SDS011;7350;51.208;4.238;2023-04-15T03:01:10;2.47;;;2.03;;
14526;SDS011;7350;51.208;4.238;2023-04-15T03:03:37;3.88;;;2.22;;
14526;SDS011;7350;51.208;4.238;2023-04-15T03:06:04;2.78;;;1.98;;
14526;SDS011;7350;51.208;4.238;2023-04-15T03:08:33;2.67;;;2.10;;
14526;SDS011;7350;51.208;4.238;2023-04-15T03:11:01;2.58;;;2.10;;
14526;SDS011;7350;51.208;4.238;2023-04-15T03:13:29;2.35;;;1.90;;
14526;SDS011;7350;51.208;4.238;2023-04-15T03:15:55;2.85;;;2.25;;
14526;SDS011;7350;51.208;4.238;2023-04-15T03:18:22;2.35;;;1.90;;
14526;SDS011;7350;51.208;4.238;2023-04-15T03:20:49;2.72;;;1.98;;
14526;SDS011;7350;51.208;4.238;2023-04-15T03:23:16;2.55;;;1.90;;
14526;SDS011;7350;51.208;4.238;2023-04-15T03:25:43;2.05;;;1.85;;
14526;SDS011;7350;51.208;4.238;2023-04-15T03:28:12;2.03;;;1.65;;
14526;SDS011;7350;51.208;4.238;2023-04-15T03:30:39;2.42;;;2.00;;
14526;SDS011;7350;51.208;4.238;2023-04-15T03:33:06;2.20;;;1.90;;
14526;SDS011;7350;51.208;4.238;2023-04-15T03:35:33;2.95;;;2.05;;
14526;SDS011;7350;51.208;4.238;2023-04-15T03:38:00;2.63;;;2.00;;
14526;SDS011;7350;51.208;4.238;2023-04-15T03:40:27;2.15;;;1.95;;
14526;SDS011;7350;51.208;4.238;2023-04-15T03:42:54;2.35;;;2.03;;
14526;SDS011;7350;51.208;4.238;2023-04-15T03:45:22;1.90;;;1.80;;
14526;SDS011;7350;51.208;4.238;2023-04-15T03:47:49;2.85;;;1.90;;
14526;SDS011;7350;51.208;4.238;2023-04-15T03:50:16;2.08;;;1.70;;
14526;SDS011;7350;51.208;4.238;2023-04-15T03:52:43;2.83;;;1.77;;
14526;SDS011;7350;51.208;4.238;2023-04-15T03:55:10;2.08;;;1.63;;
14526;SDS011;7350;51.208;4.238;2023-04-15T03:57:38;2.30;;;2.10;;
14526;SDS011;7350;51.208;4.238;2023-04-15T04:00:06;1.77;;;1.60;;
14526;SDS011;7350;51.208;4.238;2023-04-15T04:02:36;3.90;;;2.13;;
14526;SDS011;7350;51.208;4.238;2023-04-15T04:05:03;2.83;;;2.00;;
14526;SDS011;7350;51.208;4.238;2023-04-15T04:07:30;2.20;;;2.00;;
14526;SDS011;7350;51.208;4.238;2023-04-15T04:09:57;3.08;;;2.15;;
14526;SDS011;7350;51.208;4.238;2023-04-15T04:12:24;2.45;;;2.10;;
14526;SDS011;7350;51.208;4.238;2023-04-15T04:14:51;2.35;;;1.80;;
14526;SDS011;7350;51.208;4.238;2023-04-15T04:17:18;2.10;;;1.90;;
14526;SDS011;7350;51.208;4.238;2023-04-15T04:19:46;3.45;;;1.95;;
14526;SDS011;7350;51.208;4.238;2023-04-15T04:22:13;2.35;;;1.75;;
14526;SDS011;7350;51.208;4.238;2023-04-15T04:24:40;2.88;;;1.80;;
14526;SDS011;7350;51.208;4.238;2023-04-15T04:27:07;2.20;;;1.98;;
14526;SDS011;7350;51.208;4.238;2023-04-15T04:29:34;3.42;;;2.15;;
14526;SDS011;7350;51.208;4.238;2023-04-15T04:32:01;1.80;;;1.70;;
14526;SDS011;7350;51.208;4.238;2023-04-15T04:34:28;2.83;;;2.00;;
14526;SDS011;7350;51.208;4.238;2023-04-15T04:36:57;3.25;;;2.00;;
14526;SDS011;7350;51.208;4.238;2023-04-15T04:39:24;2.60;;;1.90;;
14526;SDS011;7350;51.208;4.238;2023-04-15T04:41:51;2.90;;;1.98;;
14526;SDS011;7350;51.208;4.238;2023-04-15T04:44:18;2.30;;;2.10;;
14526;SDS011;7350;51.208;4.238;2023-04-15T04:46:46;2.60;;;1.90;;
14526;SDS011;7350;51.208;4.238;2023-04-15T04:49:13;2.63;;;2.33;;
14526;SDS011;7350;51.208;4.238;2023-04-15T04:51:40;3.22;;;1.90;;
14526;SDS011;7350;51.208;4.238;2023-04-15T04:54:08;2.58;;;2.10;;
14526;SDS011;7350;51.208;4.238;2023-04-15T04:56:35;1.98;;;1.77;;
14526;SDS011;7350;51.208;4.238;2023-04-15T04:59:03;2.85;;;2.20;;
14526;SDS011;7350;51.208;4.238;2023-04-15T05:01:31;1.80;;;1.60;;
14526;SDS011;7350;51.208;4.238;2023-04-15T05:03:58;2.28;;;2.03;;
14526;SDS011;7350;51.208;4.238;2023-04-15T05:06:25;2.35;;;1.90;;
14526;SDS011;7350;51.208;4.238;2023-04-15T05:08:54;3.50;;;1.95;;
14526;SDS011;7350;51.208;4.238;2023-04-15T05:11:23;2.10;;;1.80;;
14526;SDS011;7350;51.208;4.238;2023-04-15T05:13:50;2.33;;;1.73;;
14526;SDS011;7350;51.208;4.238;2023-04-15T05:16:17;5.40;;;1.80;;
14526;SDS011;7350;51.208;4.238;2023-04-15T05:18:44;1.50;;;1.40;;
14526;SDS011;7350;51.208;4.238;2023-04-15T05:21:11;2.15;;;1.80;;
14526;SDS011;7350;51.208;4.238;2023-04-15T05:23:38;4.03;;;1.67;;
14526;SDS011;7350;51.208;4.238;2023-04-15T05:26:05;1.60;;;1.50;;
14526;SDS011;7350;51.208;4.238;2023-04-15T05:28:34;2.88;;;1.65;;
14526;SDS011;7350;51.208;4.238;2023-04-15T05:31:01;2.95;;;1.90;;
14526;SDS011;7350;51.208;4.238;2023-04-15T05:33:28;3.17;;;2.10;;
14526;SDS011;7350;51.208;4.238;2023-04-15T05:35:55;3.42;;;1.70;;
14526;SDS011;7350;51.208;4.238;2023-04-15T05:38:22;2.25;;;1.88;;
14526;SDS011;7350;51.208;4.238;2023-04-15T05:40:49;3.03;;;1.77;;
14526;SDS011;7350;51.208;4.238;2023-04-15T05:43:16;2.75;;;1.70;;
14526;SDS011;7350;51.208;4.238;2023-04-15T05:45:44;1.90;;;1.70;;
14526;SDS011;7350;51.208;4.238;2023-04-15T05:48:11;2.08;;;1.60;;
14526;SDS011;7350;51.208;4.238;2023-04-15T05:50:39;2.58;;;2.13;;
14526;SDS011;7350;51.208;4.238;2023-04-15T05:53:06;3.15;;;1.92;;
14526;SDS011;7350;51.208;4.238;2023-04-15T05:55:34;3.50;;;2.10;;
14526;SDS011;7350;51.208;4.238;2023-04-15T05:58:01;3.80;;;2.30;;
14526;SDS011;7350;51.208;4.238;2023-04-15T06:00:28;3.03;;;1.80;;
14526;SDS011;7350;51.208;4.238;2023-04-15T06:02:56;4.50;;;1.80;;
14526;SDS011;7350;51.208;4.238;2023-04-15T06:05:24;3.47;;;1.70;;
14526;SDS011;7350;51.208;4.238;2023-04-15T06:07:51;3.75;;;1.98;;
14526;SDS011;7350;51.208;4.238;2023-04-15T06:10:18;4.32;;;1.83;;
14526;SDS011;7350;51.208;4.238;2023-04-15T06:12:45;3.78;;;2.10;;
14526;SDS011;7350;51.208;4.238;2023-04-15T06:15:12;1.98;;;1.75;;
14526;SDS011;7350;51.208;4.238;2023-04-15T06:17:40;3.22;;;2.25;;
14526;SDS011;7350;51.208;4.238;2023-04-15T06:20:09;2.28;;;1.98;;
14526;SDS011;7350;51.208;4.238;2023-04-15T06:22:37;3.53;;;2.20;;
14526;SDS011;7350;51.208;4.238;2023-04-15T06:25:05;4.90;;;2.30;;
14526;SDS011;7350;51.208;4.238;2023-04-15T06:27:33;2.70;;;1.80;;
14526;SDS011;7350;51.208;4.238;2023-04-15T06:30:00;3.55;;;2.00;;
14526;SDS011;7350;51.208;4.238;2023-04-15T06:32:27;4.63;;;2.50;;
14526;SDS011;7350;51.208;4.238;2023-04-15T06:34:54;3.40;;;2.50;;
14526;SDS011;7350;51.208;4.238;2023-04-15T06:37:22;6.10;;;2.50;;
14526;SDS011;7350;51.208;4.238;2023-04-15T06:39:55;4.22;;;2.30;;
14526;SDS011;7350;51.208;4.238;2023-04-15T06:42:22;4.43;;;2.42;;
14526;SDS011;7350;51.208;4.238;2023-04-15T06:44:49;4.22;;;2.28;;
14526;SDS011;7350;51.208;4.238;2023-04-15T06:47:16;3.85;;;2.20;;
14526;SDS011;7350;51.208;4.238;2023-04-15T06:49:43;3.95;;;2.22;;
14526;SDS011;7350;51.208;4.238;2023-04-15T06:52:10;5.13;;;2.50;;
14526;SDS011;7350;51.208;4.238;2023-04-15T06:54:39;3.45;;;2.30;;
14526;SDS011;7350;51.208;4.238;2023-04-15T06:57:06;4.40;;;2.17;;
14526;SDS011;7350;51.208;4.238;2023-04-15T06:59:33;2.97;;;2.20;;
14526;SDS011;7350;51.208;4.238;2023-04-15T07:02:00;3.08;;;2.10;;
14526;SDS011;7350;51.208;4.238;2023-04-15T07:04:27;5.55;;;2.00;;
14526;SDS011;7350;51.208;4.238;2023-04-15T07:06:54;3.65;;;2.10;;
14526;SDS011;7350;51.208;4.238;2023-04-15T07:09:21;2.85;;;2.20;;
14526;SDS011;7350;51.208;4.238;2023-04-15T07:11:51;4.15;;;2.10;;
14526;SDS011;7350;51.208;4.238;2023-04-15T07:14:18;4.20;;;2.30;;
14526;SDS011;7350;51.208;4.238;2023-04-15T07:16:44;5.00;;;2.45;;
14526;SDS011;7350;51.208;4.238;2023-04-15T07:19:11;4.78;;;2.20;;
14526;SDS011;7350;51.208;4.238;2023-04-15T07:21:38;3.25;;;2.25;;
14526;SDS011;7350;51.208;4.238;2023-04-15T07:24:06;3.47;;;2.10;;
14526;SDS011;7350;51.208;4.238;2023-04-15T07:26:34;3.85;;;2.13;;
14526;SDS011;7350;51.208;4.238;2023-04-15T07:29:02;2.90;;;1.73;;
14526;SDS011;7350;51.208;4.238;2023-04-15T07:31:30;4.15;;;2.22;;
14526;SDS011;7350;51.208;4.238;2023-04-15T07:33:57;3.90;;;2.15;;
14526;SDS011;7350;51.208;4.238;2023-04-15T07:36:24;2.83;;;1.80;;
14526;SDS011;7350;51.208;4.238;2023-04-15T07:38:51;2.47;;;2.00;;
14526;SDS011;7350;51.208;4.238;2023-04-15T07:41:18;2.90;;;1.85;;
14526;SDS011;7350;51.208;4.238;2023-04-15T07:43:45;3.95;;;2.10;;
14526;SDS011;7350;51.208;4.238;2023-04-15T07:46:13;2.80;;;2.00;;
14526;SDS011;7350;51.208;4.238;2023-04-15T07:48:41;3.05;;;1.80;;
14526;SDS011;7350;51.208;4.238;2023-04-15T07:51:08;2.80;;;1.92;;
14526;SDS011;7350;51.208;4.238;2023-04-15T07:53:37;3.70;;;2.03;;
14526;SDS011;7350;51.208;4.238;2023-04-15T07:56:04;2.90;;;2.17;;
14526;SDS011;7350;51.208;4.238;2023-04-15T07:58:31;2.63;;;2.10;;
14526;SDS011;7350;51.208;4.238;2023-04-15T08:00:58;4.53;;;2.28;;
14526;SDS011;7350;51.208;4.238;2023-04-15T08:03:27;4.28;;;2.42;;
14526;SDS011;7350;51.208;4.238;2023-04-15T08:05:54;3.92;;;2.10;;
14526;SDS011;7350;51.208;4.238;2023-04-15T08:08:21;4.28;;;2.15;;
14526;SDS011;7350;51.208;4.238;2023-04-15T08:10:48;3.28;;;2.28;;
14526;SDS011;7350;51.208;4.238;2023-04-15T08:13:15;4.05;;;2.00;;
14526;SDS011;7350;51.208;4.238;2023-04-15T08:15:42;5.75;;;2.30;;
14526;SDS011;7350;51.208;4.238;2023-04-15T08:18:09;4.05;;;2.25;;
14526;SDS011;7350;51.208;4.238;2023-04-15T08:20:38;4.45;;;2.40;;
14526;SDS011;7350;51.208;4.238;2023-04-15T08:23:05;3.25;;;2.42;;
14526;SDS011;7350;51.208;4.238;2023-04-15T08:25:32;3.60;;;2.75;;
14526;SDS011;7350;51.208;4.238;2023-04-15T08:28:02;5.07;;;2.92;;
14526;SDS011;7350;51.208;4.238;2023-04-15T08:30:31;6.57;;;3.25;;
14526;SDS011;7350;51.208;4.238;2023-04-15T08:32:58;4.07;;;3.67;;
14526;SDS011;7350;51.208;4.238;2023-04-15T08:35:26;7.70;;;4.40;;
14526;SDS011;7350;51.208;4.238;2023-04-15T08:37:54;5.43;;;3.72;;
14526;SDS011;7350;51.208;4.238;2023-04-15T08:40:21;5.80;;;4.45;;
14526;SDS011;7350;51.208;4.238;2023-04-15T08:42:52;16.33;;;4.95;;
14526;SDS011;7350;51.208;4.238;2023-04-15T08:45:23;7.82;;;4.30;;
14526;SDS011;7350;51.208;4.238;2023-04-15T08:47:50;6.28;;;3.67;;
14526;SDS011;7350;51.208;4.238;2023-04-15T08:50:22;10.68;;;3.65;;
14526;SDS011;7350;51.208;4.238;2023-04-15T08:52:52;6.82;;;4.18;;
14526;SDS011;7350;51.208;4.238;2023-04-15T08:55:24;8.13;;;3.88;;
14526;SDS011;7350;51.208;4.238;2023-04-15T08:57:53;10.52;;;4.35;;
14526;SDS011;7350;51.208;4.238;2023-04-15T09:00:21;7.47;;;3.80;;
14526;SDS011;7350;51.208;4.238;2023-04-15T09:02:48;8.75;;;4.57;;
14526;SDS011;7350;51.208;4.238;2023-04-15T09:05:16;7.88;;;4.07;;
14526;SDS011;7350;51.208;4.238;2023-04-15T09:07:45;7.00;;;4.15;;
14526;SDS011;7350;51.208;4.238;2023-04-15T09:10:14;7.97;;;4.40;;
14526;SDS011;7350;51.208;4.238;2023-04-15T09:12:41;6.15;;;3.60;;
14526;SDS011;7350;51.208;4.238;2023-04-15T09:15:09;16.02;;;4.40;;
14526;SDS011;7350;51.208;4.238;2023-04-15T09:17:41;7.22;;;4.07;;
14526;SDS011;7350;51.208;4.238;2023-04-15T09:20:09;7.68;;;4.10;;
14526;SDS011;7350;51.208;4.238;2023-04-15T09:22:37;4.95;;;3.92;;
14526;SDS011;7350;51.208;4.238;2023-04-15T09:25:13;4.45;;;3.63;;
14526;SDS011;7350;51.208;4.238;2023-04-15T09:27:52;7.60;;;3.90;;
14526;SDS011;7350;51.208;4.238;2023-04-15T09:30:20;6.90;;;3.72;;
14526;SDS011;7350;51.208;4.238;2023-04-15T09:32:48;4.10;;;3.20;;
14526;SDS011;7350;51.208;4.238;2023-04-15T09:35:16;5.15;;;3.45;;
14526;SDS011;7350;51.208;4.238;2023-04-15T09:37:43;5.47;;;3.38;;
14526;SDS011;7350;51.208;4.238;2023-04-15T09:40:11;4.57;;;3.13;;
14526;SDS011;7350;51.208;4.238;2023-04-15T09:45:22;6.65;;;3.38;;
14526;SDS011;7350;51.208;4.238;2023-04-15T09:47:50;6.60;;;3.20;;
14526;SDS011;7350;51.208;4.238;2023-04-15T09:50:17;5.80;;;3.20;;
14526;SDS011;7350;51.208;4.238;2023-04-15T09:52:45;3.85;;;2.70;;
14526;SDS011;7350;51.208;4.238;2023-04-15T09:55:13;3.72;;;2.72;;
14526;SDS011;7350;51.208;4.238;2023-04-15T09:57:44;4.75;;;2.70;;
14526;SDS011;7350;51.208;4.238;2023-04-15T10:00:14;3.90;;;2.58;;
14526;SDS011;7350;51.208;4.238;2023-04-15T10:02:41;5.57;;;2.72;;
14526;SDS011;7350;51.208;4.238;2023-04-15T10:05:09;3.65;;;2.50;;
14526;SDS011;7350;51.208;4.238;2023-04-15T10:07:39;4.50;;;2.60;;
14526;SDS011;7350;51.208;4.238;2023-04-15T10:10:07;5.18;;;2.65;;
14526;SDS011;7350;51.208;4.238;2023-04-15T10:12:35;4.18;;;2.47;;
14526;SDS011;7350;51.208;4.238;2023-04-15T10:15:03;4.63;;;2.58;;
14526;SDS011;7350;51.208;4.238;2023-04-15T10:17:33;5.18;;;1.85;;
14526;SDS011;7350;51.208;4.238;2023-04-15T10:20:01;3.53;;;2.30;;
14526;SDS011;7350;51.208;4.238;2023-04-15T10:22:30;7.57;;;2.10;;
14526;SDS011;7350;51.208;4.238;2023-04-15T10:24:58;5.22;;;2.70;;
14526;SDS011;7350;51.208;4.238;2023-04-15T10:27:26;3.15;;;2.08;;
14526;SDS011;7350;51.208;4.238;2023-04-15T10:29:54;4.63;;;2.28;;
14526;SDS011;7350;51.208;4.238;2023-04-15T10:32:21;3.10;;;1.70;;
14526;SDS011;7350;51.208;4.238;2023-04-15T10:34:51;5.03;;;2.00;;
14526;SDS011;7350;51.208;4.238;2023-04-15T10:37:20;3.03;;;2.17;;
14526;SDS011;7350;51.208;4.238;2023-04-15T10:39:47;3.47;;;1.75;;
14526;SDS011;7350;51.208;4.238;2023-04-15T10:42:15;2.42;;;1.40;;
14526;SDS011;7350;51.208;4.238;2023-04-15T10:44:44;2.50;;;2.08;;
14526;SDS011;7350;51.208;4.238;2023-04-15T10:47:16;2.78;;;1.77;;
14526;SDS011;7350;51.208;4.238;2023-04-15T10:49:45;2.83;;;1.40;;
14526;SDS011;7350;51.208;4.238;2023-04-15T10:52:15;2.10;;;1.55;;
14526;SDS011;7350;51.208;4.238;2023-04-15T10:54:47;3.10;;;1.50;;
14526;SDS011;7350;51.208;4.238;2023-04-15T10:57:15;3.33;;;1.40;;
14526;SDS011;7350;51.208;4.238;2023-04-15T11:00:00;3.97;;;1.42;;
14526;SDS011;7350;51.208;4.238;2023-04-15T11:02:42;2.47;;;1.30;;
14526;SDS011;7350;51.208;4.238;2023-04-15T11:05:11;2.65;;;1.50;;
14526;SDS011;7350;51.208;4.238;2023-04-15T11:07:41;3.90;;;1.80;;
14526;SDS011;7350;51.208;4.238;2023-04-15T11:13:26;1.80;;;1.20;;
14526;SDS011;7350;51.208;4.238;2023-04-15T11:15:59;2.03;;;1.30;;
14526;SDS011;7350;51.208;4.238;2023-04-15T11:18:27;2.65;;;1.60;;
14526;SDS011;7350;51.208;4.238;2023-04-15T11:20:58;3.00;;;1.40;;
14526;SDS011;7350;51.208;4.238;2023-04-15T11:23:30;5.97;;;1.70;;
14526;SDS011;7350;51.208;4.238;2023-04-15T11:25:59;8.57;;;1.80;;
14526;SDS011;7350;51.208;4.238;2023-04-15T11:28:27;9.52;;;1.85;;
14526;SDS011;7350;51.208;4.238;2023-04-15T11:30:55;6.32;;;1.80;;
14526;SDS011;7350;51.208;4.238;2023-04-15T11:33:23;3.03;;;1.63;;
14526;SDS011;7350;51.208;4.238;2023-04-15T11:35:51;6.88;;;2.00;;
14526;SDS011;7350;51.208;4.238;2023-04-15T11:38:19;5.72;;;1.83;;
14526;SDS011;7350;51.208;4.238;2023-04-15T11:40:48;4.70;;;1.75;;
14526;SDS011;7350;51.208;4.238;2023-04-15T11:43:18;5.90;;;1.67;;
14526;SDS011;7350;51.208;4.238;2023-04-15T11:45:47;5.00;;;1.60;;
14526;SDS011;7350;51.208;4.238;2023-04-15T11:48:16;4.63;;;1.90;;
14526;SDS011;7350;51.208;4.238;2023-04-15T11:50:43;7.57;;;1.50;;
14526;SDS011;7350;51.208;4.238;2023-04-15T11:53:11;7.03;;;1.75;;
14526;SDS011;7350;51.208;4.238;2023-04-15T11:55:40;5.15;;;1.50;;
14526;SDS011;7350;51.208;4.238;2023-04-15T11:58:10;8.25;;;2.03;;
14526;SDS011;7350;51.208;4.238;2023-04-15T12:00:39;4.13;;;1.40;;
14526;SDS011;7350;51.208;4.238;2023-04-15T12:03:10;8.05;;;1.80;;
14526;SDS011;7350;51.208;4.238;2023-04-15T12:11:30;3.67;;;1.27;;
14526;SDS011;7350;51.208;4.238;2023-04-15T12:14:01;9.70;;;2.03;;
14526;SDS011;7350;51.208;4.238;2023-04-15T12:16:30;11.63;;;2.05;;
14526;SDS011;7350;51.208;4.238;2023-04-15T12:18:59;9.52;;;1.92;;
14526;SDS011;7350;51.208;4.238;2023-04-15T12:21:32;7.57;;;1.88;;
14526;SDS011;7350;51.208;4.238;2023-04-15T12:24:01;4.78;;;1.83;;
14526;SDS011;7350;51.208;4.238;2023-04-15T12:26:30;5.68;;;2.10;;
14526;SDS011;7350;51.208;4.238;2023-04-15T12:29:01;6.63;;;1.88;;
14526;SDS011;7350;51.208;4.238;2023-04-15T12:31:29;3.08;;;1.65;;
14526;SDS011;7350;51.208;4.238;2023-04-15T12:33:56;4.55;;;1.70;;
14526;SDS011;7350;51.208;4.238;2023-04-15T12:36:24;5.90;;;2.00;;
14526;SDS011;7350;51.208;4.238;2023-04-15T12:38:52;8.52;;;1.50;;
14526;SDS011;7350;51.208;4.238;2023-04-15T12:41:19;4.85;;;1.52;;
14526;SDS011;7350;51.208;4.238;2023-04-15T12:43:48;4.18;;;1.40;;
14526;SDS011;7350;51.208;4.238;2023-04-15T12:46:17;3.85;;;1.48;;
14526;SDS011;7350;51.208;4.238;2023-04-15T12:48:44;4.93;;;1.70;;
14526;SDS011;7350;51.208;4.238;2023-04-15T12:51:11;7.00;;;1.45;;
14526;SDS011;7350;51.208;4.238;2023-04-15T12:53:38;6.28;;;1.65;;
14526;SDS011;7350;51.208;4.238;2023-04-15T12:56:05;7.35;;;1.85;;
14526;SDS011;7350;51.208;4.238;2023-04-15T12:58:33;9.43;;;2.17;;
14526;SDS011;7350;51.208;4.238;2023-04-15T13:01:00;6.38;;;1.80;;
14526;SDS011;7350;51.208;4.238;2023-04-15T13:03:28;6.55;;;2.05;;
14526;SDS011;7350;51.208;4.238;2023-04-15T13:05:55;5.18;;;1.67;;
14526;SDS011;7350;51.208;4.238;2023-04-15T13:08:23;8.57;;;2.20;;
14526;SDS011;7350;51.208;4.238;2023-04-15T13:10:50;4.93;;;1.85;;
14526;SDS011;7350;51.208;4.238;2023-04-15T13:13:17;4.38;;;1.60;;
14526;SDS011;7350;51.208;4.238;2023-04-15T13:15:44;6.03;;;1.70;;
14526;SDS011;7350;51.208;4.238;2023-04-15T13:18:11;5.47;;;1.85;;
14526;SDS011;7350;51.208;4.238;2023-04-15T13:20:39;8.98;;;1.70;;
14526;SDS011;7350;51.208;4.238;2023-04-15T13:23:06;7.18;;;1.50;;
14526;SDS011;7350;51.208;4.238;2023-04-15T13:25:33;6.28;;;1.85;;
14526;SDS011;7350;51.208;4.238;2023-04-15T13:28:00;6.68;;;1.40;;
14526;SDS011;7350;51.208;4.238;2023-04-15T13:30:27;4.40;;;1.40;;
14526;SDS011;7350;51.208;4.238;2023-04-15T13:32:55;4.93;;;1.60;;
14526;SDS011;7350;51.208;4.238;2023-04-15T13:35:22;3.72;;;1.50;;
14526;SDS011;7350;51.208;4.238;2023-04-15T13:37:50;2.33;;;1.27;;
14526;SDS011;7350;51.208;4.238;2023-04-15T13:40:19;3.55;;;1.20;;
14526;SDS011;7350;51.208;4.238;2023-04-15T13:42:46;4.57;;;1.13;;
14526;SDS011;7350;51.208;4.238;2023-04-15T13:45:13;3.63;;;1.35;;
14526;SDS011;7350;51.208;4.238;2023-04-15T13:47:40;4.05;;;1.30;;
14526;SDS011;7350;51.208;4.238;2023-04-15T13:50:08;3.95;;;1.20;;
14526;SDS011;7350;51.208;4.238;2023-04-15T13:52:35;5.05;;;1.30;;
14526;SDS011;7350;51.208;4.238;2023-04-15T13:55:04;9.90;;;1.70;;
14526;SDS011;7350;51.208;4.238;2023-04-15T13:57:32;6.65;;;1.60;;
14526;SDS011;7350;51.208;4.238;2023-04-15T14:00:00;9.93;;;1.70;;
14526;SDS011;7350;51.208;4.238;2023-04-15T14:02:28;10.73;;;1.85;;
14526;SDS011;7350;51.208;4.238;2023-04-15T14:04:55;11.18;;;2.33;;
14526;SDS011;7350;51.208;4.238;2023-04-15T14:07:22;9.75;;;1.70;;
14526;SDS011;7350;51.208;4.238;2023-04-15T14:09:49;10.98;;;2.20;;
14526;SDS011;7350;51.208;4.238;2023-04-15T14:12:18;11.27;;;1.98;;
14526;SDS011;7350;51.208;4.238;2023-04-15T14:14:45;6.93;;;1.80;;
14526;SDS011;7350;51.208;4.238;2023-04-15T14:17:11;9.27;;;1.67;;
14526;SDS011;7350;51.208;4.238;2023-04-15T14:19:38;9.48;;;1.70;;
14526;SDS011;7350;51.208;4.238;2023-04-15T14:22:05;7.60;;;1.65;;
14526;SDS011;7350;51.208;4.238;2023-04-15T14:24:32;10.70;;;1.92;;
14526;SDS011;7350;51.208;4.238;2023-04-15T14:26:59;8.25;;;1.60;;
14526;SDS011;7350;51.208;4.238;2023-04-15T14:29:28;4.22;;;1.45;;
14526;SDS011;7350;51.208;4.238;2023-04-15T14:31:55;7.30;;;1.90;;
14526;SDS011;7350;51.208;4.238;2023-04-15T14:34:23;6.97;;;1.55;;
14526;SDS011;7350;51.208;4.238;2023-04-15T14:36:50;5.68;;;1.40;;
14526;SDS011;7350;51.208;4.238;2023-04-15T14:39:17;4.40;;;1.70;;
14526;SDS011;7350;51.208;4.238;2023-04-15T14:41:44;5.47;;;1.83;;
14526;SDS011;7350;51.208;4.238;2023-04-15T14:44:11;8.52;;;1.65;;
14526;SDS011;7350;51.208;4.238;2023-04-15T14:46:40;2.90;;;1.30;;
14526;SDS011;7350;51.208;4.238;2023-04-15T14:49:07;5.07;;;1.58;;
14526;SDS011;7350;51.208;4.238;2023-04-15T14:51:34;7.30;;;1.80;;
14526;SDS011;7350;51.208;4.238;2023-04-15T14:54:00;5.97;;;1.95;;
14526;SDS011;7350;51.208;4.238;2023-04-15T14:56:27;5.78;;;2.17;;
14526;SDS011;7350;51.208;4.238;2023-04-15T14:58:54;4.07;;;1.67;;
14526;SDS011;7350;51.208;4.238;2023-04-15T15:01:22;5.13;;;1.60;;
14526;SDS011;7350;51.208;4.238;2023-04-15T15:03:50;5.28;;;1.92;;
14526;SDS011;7350;51.208;4.238;2023-04-15T15:06:19;6.55;;;1.65;;
14526;SDS011;7350;51.208;4.238;2023-04-15T15:08:47;4.75;;;1.40;;
14526;SDS011;7350;51.208;4.238;2023-04-15T15:11:14;4.25;;;1.95;;
14526;SDS011;7350;51.208;4.238;2023-04-15T15:13:41;9.57;;;1.90;;
14526;SDS011;7350;51.208;4.238;2023-04-15T15:16:08;5.55;;;1.88;;